Time;durP1;ratioP1;P1;durP2;ratioP2;P2;SDS_P1;SDS_P2;PMS_P1;PMS_P2;Temp;Humidity;BMP_temperature;BMP_pressure;BME280_temperature;BME280_humidity;BME280_pressure;Samples;Min_cycle;Max_cycle;Signal;HPM_P1;HPM_P2
2021/07/19 00:01:43;;;;;;;21.45;15.65;;;;;;;25.15;66.31;98814.09;1714062;83;20930;-41
2021/07/19 00:04:10;;;;;;;19.60;15.25;;;;;;;25.15;66.39;98814.09;1713393;83;21018;-41
2021/07/19 00:06:36;;;;;;;21.75;15.20;;;;;;;25.15;66.37;98812.70;1680164;83;22276;-41
2021/07/19 00:09:03;;;;;;;25.55;14.98;;;;;;;25.16;66.33;98812.08;1713589;82;21851;-41
2021/07/19 00:11:32;;;;;;;20.45;15.13;;;;;;;25.15;66.25;98814.70;1713863;82;20969;-41
2021/07/19 00:13:58;;;;;;;22.25;14.80;;;;;;;25.14;66.35;98813.16;1713634;82;21061;-41
2021/07/19 00:16:26;;;;;;;19.32;15.08;;;;;;;25.14;66.22;98809.00;1713517;82;21003;-41
2021/07/19 00:18:53;;;;;;;20.88;15.10;;;;;;;25.13;66.09;98813.78;1713727;82;22045;-41
2021/07/19 00:21:21;;;;;;;22.10;15.05;;;;;;;25.13;66.04;98813.00;1713475;82;20926;-41
2021/07/19 00:23:48;;;;;;;20.88;15.40;;;;;;;25.11;65.99;98816.27;1713668;83;21555;-41
2021/07/19 00:26:19;;;;;;;19.20;15.13;;;;;;;25.09;65.89;98809.80;1713510;82;21081;-41
2021/07/19 00:28:44;;;;;;;17.07;15.05;;;;;;;25.08;66.02;98801.32;1713503;82;21010;-41
2021/07/19 00:31:11;;;;;;;19.12;15.83;;;;;;;25.03;66.01;98794.27;1713531;82;21045;-41
2021/07/19 00:33:38;;;;;;;18.45;15.53;;;;;;;25.06;66.08;98807.20;1713591;82;21116;-41
2021/07/19 00:36:07;;;;;;;18.75;15.55;;;;;;;25.05;66.06;98807.82;1703472;83;21492;-41
2021/07/19 00:38:33;;;;;;;19.50;15.30;;;;;;;25.03;66.14;98803.97;1713727;83;21037;-41
2021/07/19 00:41:02;;;;;;;20.43;15.30;;;;;;;25.02;66.15;98802.45;1713763;82;20981;-41
2021/07/19 00:43:31;;;;;;;17.48;15.58;;;;;;;25.00;66.16;98801.53;1713710;82;20942;-42
2021/07/19 00:45:58;;;;;;;20.75;15.35;;;;;;;24.97;66.29;98798.32;1713565;82;21949;-41
2021/07/19 00:48:25;;;;;;;19.35;15.90;;;;;;;24.96;66.35;98791.23;1713264;83;20965;-41
2021/07/19 00:50:53;;;;;;;19.37;15.53;;;;;;;24.96;66.62;98794.63;1703536;83;21537;-41
2021/07/19 00:53:20;;;;;;;20.20;15.60;;;;;;;24.95;66.70;98799.40;1713437;82;21570;-41
2021/07/19 00:55:48;;;;;;;24.05;16.02;;;;;;;24.95;66.76;98790.30;1713411;83;21017;-41
2021/07/19 00:58:15;;;;;;;23.22;16.17;;;;;;;24.94;66.65;98785.99;1713880;83;21044;-41
2021/07/19 01:00:45;;;;;;;20.95;16.15;;;;;;;24.93;66.60;98790.03;1713629;83;21025;-41
2021/07/19 01:03:12;;;;;;;19.85;15.68;;;;;;;24.92;66.54;98796.80;1713693;83;20978;-41
2021/07/19 01:05:42;;;;;;;21.17;15.70;;;;;;;24.89;66.58;98792.18;1713523;83;20977;-41
2021/07/19 01:08:10;;;;;;;20.57;15.95;;;;;;;24.88;66.63;98794.83;1713503;82;20993;-41
2021/07/19 01:10:38;;;;;;;21.33;15.90;;;;;;;24.86;66.74;98793.09;1713654;82;21495;-41
2021/07/19 01:13:06;;;;;;;21.37;15.63;;;;;;;24.85;66.73;98802.03;1713473;83;21563;-41
2021/07/19 01:15:37;;;;;;;18.05;15.30;;;;;;;24.84;66.81;98803.87;1713422;83;21016;-41
2021/07/19 01:18:05;;;;;;;20.12;15.63;;;;;;;24.83;66.86;98791.28;1713688;83;21053;-41
2021/07/19 01:20:57;;;;;;;18.25;15.72;;;;;;;24.82;67.00;98792.51;1713817;82;21088;-41
2021/07/19 01:23:52;;;;;;;20.80;16.37;;;;;;;24.81;67.01;98802.06;1713624;83;21147;-41
2021/07/19 01:26:59;;;;;;;22.05;15.43;;;;;;;24.80;67.19;98799.13;1713374;82;21507;-41
2021/07/19 01:29:27;;;;;;;22.27;15.55;;;;;;;24.77;67.31;98802.84;1713561;83;21037;-41
2021/07/19 01:31:53;;;;;;;20.40;16.17;;;;;;;24.73;67.34;98807.80;1713404;82;21161;-41
2021/07/19 01:34:23;;;;;;;21.25;16.40;;;;;;;24.72;67.31;98803.48;1713527;83;21021;-41
2021/07/19 01:36:58;;;;;;;23.42;15.83;;;;;;;24.73;67.39;98809.19;1703568;83;21629;-41
2021/07/19 01:39:28;;;;;;;20.72;16.02;;;;;;;24.71;67.40;98802.72;1712175;82;21575;-41
2021/07/19 01:41:56;;;;;;;25.62;16.73;;;;;;;24.69;67.40;98799.63;1713677;83;20930;-41
2021/07/19 01:44:23;;;;;;;25.70;16.40;;;;;;;24.68;67.47;98793.95;1713368;83;21037;-41
2021/07/19 01:46:50;;;;;;;21.87;16.10;;;;;;;24.66;67.49;98794.42;1713476;83;20994;-41
2021/07/19 01:49:19;;;;;;;22.40;15.75;;;;;;;24.64;67.70;98796.87;1662619;83;21143;-41
2021/07/19 01:51:46;;;;;;;20.12;15.80;;;;;;;24.65;67.85;98798.42;1713542;83;21006;-41
2021/07/19 01:54:15;;;;;;;22.13;16.77;;;;;;;24.65;67.84;98800.42;1713517;82;20981;-41
2021/07/19 01:56:43;;;;;;;19.77;15.98;;;;;;;24.64;67.92;98805.20;1713835;83;21535;-41
2021/07/19 01:59:11;;;;;;;21.35;16.85;;;;;;;24.65;67.83;98810.89;1713954;83;20993;-41
2021/07/19 02:01:40;;;;;;;22.00;16.52;;;;;;;24.65;67.76;98805.97;1713499;82;21168;-41
2021/07/19 02:04:10;;;;;;;21.07;16.37;;;;;;;24.65;67.70;98810.13;1713802;83;20969;-41
2021/07/19 02:06:39;;;;;;;24.77;17.27;;;;;;;24.64;67.70;98814.16;1713644;82;21001;-41
2021/07/19 02:09:09;;;;;;;22.58;16.35;;;;;;;24.64;67.69;98812.77;1713837;82;21037;-41
2021/07/19 02:11:37;;;;;;;20.48;16.30;;;;;;;24.64;67.92;98819.05;1703191;83;21009;-41
2021/07/19 02:14:07;;;;;;;25.37;17.30;;;;;;;24.64;68.00;98815.54;1713829;83;21092;-41
2021/07/19 02:16:36;;;;;;;23.77;17.12;;;;;;;24.63;67.54;98827.23;1703300;83;21037;-41
2021/07/19 02:19:04;;;;;;;21.57;17.33;;;;;;;24.58;67.54;98832.03;1714022;82;21520;-41
2021/07/19 02:21:32;;;;;;;29.98;18.30;;;;;;;24.45;67.92;98838.36;1713800;83;21288;-41
2021/07/19 02:24:18;;;;;;;21.95;18.10;;;;;;;24.28;68.51;98833.02;1713901;83;21061;-41
2021/07/19 02:26:46;;;;;;;24.77;18.48;;;;;;;24.19;68.89;98841.35;1713116;82;21085;-41
2021/07/19 02:29:13;;;;;;;24.75;18.07;;;;;;;24.13;68.94;98843.94;1713786;83;20958;-41
2021/07/19 02:31:41;;;;;;;21.80;18.00;;;;;;;24.08;68.85;98844.56;1703286;83;20994;-41
2021/07/19 02:34:09;;;;;;;24.32;17.25;;;;;;;24.05;68.87;98846.11;1725839;83;21032;-41
2021/07/19 02:36:36;;;;;;;23.77;17.65;;;;;;;24.01;68.91;98839.95;1726460;83;20993;-41
2021/07/19 02:39:04;;;;;;;22.65;16.87;;;;;;;23.99;68.93;98847.95;1726519;83;21134;-41
2021/07/19 02:41:31;;;;;;;21.15;16.52;;;;;;;23.96;68.95;98848.27;1726376;82;21025;-41
2021/07/19 02:44:02;;;;;;;26.82;18.67;;;;;;;23.89;69.04;98852.72;1725920;82;21080;-41
2021/07/19 02:46:31;;;;;;;25.55;19.40;;;;;;;23.81;69.25;98841.20;1725033;82;21036;-41
2021/07/19 02:48:58;;;;;;;25.60;18.87;;;;;;;23.76;69.66;98834.89;1726501;82;21060;-41
2021/07/19 02:51:28;;;;;;;25.32;18.12;;;;;;;23.76;69.95;98838.27;1726348;83;21132;-41
2021/07/19 02:53:57;;;;;;;27.67;19.20;;;;;;;23.76;69.94;98844.58;1726593;82;21567;-41
2021/07/19 02:56:24;;;;;;;22.58;18.12;;;;;;;23.75;69.91;98843.03;1726354;83;20977;-41
2021/07/19 02:58:53;;;;;;;27.70;18.62;;;;;;;23.75;69.96;98843.03;1726769;83;20965;-41
2021/07/19 03:01:21;;;;;;;32.58;18.85;;;;;;;23.76;69.97;98851.50;1720865;82;21514;-41
2021/07/19 03:03:49;;;;;;;24.20;17.92;;;;;;;23.77;69.89;98858.55;1726784;83;21115;-41
2021/07/19 03:06:21;;;;;;;26.10;18.15;;;;;;;23.80;69.72;98853.49;1726520;82;21554;-41
2021/07/19 03:08:48;;;;;;;30.77;18.92;;;;;;;23.81;69.69;98850.88;1726918;83;21514;-41
2021/07/19 03:11:31;;;;;;;24.98;18.40;;;;;;;23.82;69.64;98857.94;1725205;82;21072;-41
2021/07/19 03:13:59;;;;;;;24.25;17.95;;;;;;;23.85;69.71;98861.80;1726132;82;21021;-41
2021/07/19 03:16:27;;;;;;;21.62;17.77;;;;;;;23.86;69.63;98855.65;1726517;83;21149;-41
2021/07/19 03:18:57;;;;;;;26.77;18.20;;;;;;;23.89;69.61;98854.72;1726866;82;20976;-41
2021/07/19 03:21:25;;;;;;;24.67;17.55;;;;;;;23.90;69.08;98864.56;1726425;83;21094;-41
2021/07/19 03:23:53;;;;;;;26.35;17.12;;;;;;;23.91;68.93;98867.50;1725870;82;21029;-41
2021/07/19 03:26:21;;;;;;;23.40;17.35;;;;;;;23.92;68.87;98860.09;1726452;83;21092;-41
2021/07/19 03:28:49;;;;;;;20.63;15.77;;;;;;;23.96;68.75;98857.19;1727156;82;21093;-41
2021/07/19 03:31:17;;;;;;;22.90;16.02;;;;;;;24.02;68.27;98862.24;1726289;83;21078;-41
2021/07/19 03:33:45;;;;;;;22.65;15.98;;;;;;;24.08;67.73;98859.02;1705384;83;21586;-41
2021/07/19 03:36:14;;;;;;;22.73;15.65;;;;;;;24.15;67.48;98858.72;1721333;83;21056;-41
2021/07/19 03:38:43;;;;;;;23.42;16.65;;;;;;;24.21;67.31;98863.80;1721399;83;21779;-41
2021/07/19 03:41:14;;;;;;;22.02;15.45;;;;;;;24.27;67.10;98859.18;1730759;81;21114;-41
2021/07/19 03:43:44;;;;;;;24.70;16.02;;;;;;;24.36;66.51;98859.77;1751174;82;21022;-41
2021/07/19 03:46:11;;;;;;;23.40;16.17;;;;;;;24.43;66.38;98860.86;1751108;82;21016;-41
2021/07/19 03:48:38;;;;;;;22.00;15.10;;;;;;;24.49;65.87;98860.39;1748579;82;21041;-41
2021/07/19 03:51:07;;;;;;;24.02;14.65;;;;;;;24.52;65.42;98868.53;1742990;82;21496;-41
2021/07/19 03:53:36;;;;;;;37.20;17.03;;;;;;;24.58;65.50;98869.45;1743102;82;21123;-41
2021/07/19 03:56:04;;;;;;;26.45;16.27;;;;;;;24.64;65.36;98867.56;1710611;82;21633;-41
2021/07/19 03:58:33;;;;;;;21.00;14.83;;;;;;;24.69;64.91;98866.93;1714113;82;21017;-41
2021/07/19 04:01:00;;;;;;;21.73;15.10;;;;;;;24.77;65.13;98870.77;1743022;81;20962;-41
2021/07/19 04:03:32;;;;;;;22.65;15.03;;;;;;;24.82;65.05;98871.53;1743178;82;21053;-41
2021/07/19 04:06:02;;;;;;;20.72;14.20;;;;;;;24.88;64.44;98873.85;1742948;82;21120;-41
2021/07/19 04:08:34;;;;;;;20.77;14.07;;;;;;;24.95;64.37;98872.11;1741984;82;21009;-41
2021/07/19 04:11:01;;;;;;;21.45;15.00;;;;;;;25.00;63.93;98865.94;1723274;82;21044;-41
2021/07/19 04:13:30;;;;;;;18.32;13.68;;;;;;;25.05;63.71;98863.30;1721204;83;20985;-41
2021/07/19 04:15:59;;;;;;;21.37;14.35;;;;;;;25.13;63.28;98858.16;1721161;83;21006;-41
2021/07/19 04:18:26;;;;;;;24.57;13.80;;;;;;;25.20;63.00;98863.38;1703380;83;21829;-41
2021/07/19 04:20:55;;;;;;;21.00;14.15;;;;;;;25.28;62.75;98863.78;1721130;83;21021;-41
2021/07/19 04:23:24;;;;;;;23.73;14.25;;;;;;;25.33;62.45;98859.75;1721342;83;20969;-41
2021/07/19 04:25:53;;;;;;;17.82;13.53;;;;;;;25.39;61.83;98857.87;1703293;83;20980;-41
2021/07/19 04:28:22;;;;;;;24.05;13.10;;;;;;;25.45;62.04;98860.16;1721520;83;21069;-41
2021/07/19 04:30:50;;;;;;;20.62;12.63;;;;;;;25.50;61.74;98853.19;1721179;83;21235;-41
2021/07/19 04:33:18;;;;;;;18.02;12.35;;;;;;;25.57;60.82;98858.40;1718710;82;21072;-42
2021/07/19 04:35:47;;;;;;;20.85;13.10;;;;;;;25.64;60.65;98851.11;1713544;82;21216;-41
2021/07/19 04:38:17;;;;;;;21.05;12.90;;;;;;;25.70;60.49;98854.78;1713678;82;21037;-41
2021/07/19 04:40:53;;;;;;;22.02;12.93;;;;;;;25.78;60.30;98855.17;1703279;83;21598;-41
2021/07/19 04:43:22;;;;;;;18.60;12.73;;;;;;;25.84;59.77;98854.67;1713785;83;21746;-41
2021/07/19 04:45:49;;;;;;;20.48;12.73;;;;;;;25.90;60.16;98850.73;1713457;83;21032;-41
2021/07/19 04:48:17;;;;;;;18.67;11.90;;;;;;;25.97;60.03;98845.45;1713593;82;21021;-41
2021/07/19 04:50:45;;;;;;;16.12;11.68;;;;;;;26.03;59.18;98839.39;1713370;83;21085;-41
2021/07/19 04:53:12;;;;;;;16.50;12.07;;;;;;;26.10;58.92;98831.28;1713831;82;21056;-41
2021/07/19 04:55:45;;;;;;;17.57;11.95;;;;;;;26.16;58.79;98832.92;1713433;82;21973;-41
2021/07/19 04:58:14;;;;;;;22.17;12.45;;;;;;;26.22;59.03;98836.61;1713803;83;20973;-41
2021/07/19 05:00:40;;;;;;;17.45;11.48;;;;;;;26.29;58.99;98834.83;1713638;83;20997;-41
2021/07/19 05:03:09;;;;;;;16.75;11.90;;;;;;;26.35;58.62;98833.54;1713656;83;20938;-41
2021/07/19 05:05:36;;;;;;;23.42;12.75;;;;;;;26.39;58.73;98832.10;1713626;83;21045;-42
2021/07/19 05:08:04;;;;;;;22.27;13.15;;;;;;;26.48;58.90;98829.84;1713797;83;21123;-41
2021/07/19 05:10:31;;;;;;;20.68;12.50;;;;;;;26.55;58.54;98830.86;1713419;82;21069;-41
2021/07/19 05:12:58;;;;;;;19.52;13.13;;;;;;;26.60;58.65;98830.80;1713475;83;20926;-41
2021/07/19 05:15:25;;;;;;;18.40;12.65;;;;;;;26.66;58.90;98832.44;1713568;83;21057;-41
2021/07/19 05:17:51;;;;;;;23.65;14.00;;;;;;;26.73;59.06;98833.42;1713729;83;21029;-41
2021/07/19 05:20:21;;;;;;;20.50;13.48;;;;;;;26.81;59.18;98831.80;1713412;83;21143;-41
2021/07/19 05:22:50;;;;;;;21.07;13.50;;;;;;;26.88;59.03;98827.86;1713786;83;21009;-42
2021/07/19 05:25:30;;;;;;;22.73;13.93;;;;;;;26.98;59.36;98832.06;1713795;83;21009;-41
2021/07/19 05:28:12;;;;;;;19.40;13.90;;;;;;;27.04;59.38;98828.74;1713547;82;21124;-41
2021/07/19 05:30:48;;;;;;;19.92;14.60;;;;;;;27.10;59.27;98830.98;1713491;82;21065;-41
2021/07/19 05:33:16;;;;;;;20.85;15.13;;;;;;;27.18;59.09;98836.91;1713400;83;21103;-41
2021/07/19 05:35:43;;;;;;;22.48;13.90;;;;;;;27.26;59.00;98839.41;1713524;83;20977;-41
2021/07/19 05:38:10;;;;;;;19.27;14.55;;;;;;;27.34;59.11;98834.22;1713315;83;21064;-41
2021/07/19 05:40:37;;;;;;;18.48;14.05;;;;;;;27.44;58.91;98834.23;1713407;83;21066;-41
2021/07/19 05:43:04;;;;;;;22.93;15.75;;;;;;;27.54;59.06;98837.05;1713543;83;21013;-41
2021/07/19 05:47:58;;;;;;;23.77;15.30;;;;;;;27.75;58.97;98838.55;1796898;79;22719;-41
2021/07/19 05:50:28;;;;;;;23.98;16.15;;;;;;;27.74;59.20;98837.02;1757059;81;21487;-41
2021/07/19 05:52:57;;;;;;;22.02;14.93;;;;;;;27.83;59.19;98838.29;1749894;81;21132;-41
2021/07/19 05:55:26;;;;;;;;;;;;;;;27.91;58.95;98834.44;1751416;81;21520;-41
2021/07/19 05:57:53;;;;;;;27.73;15.43;;;;;;;28.00;59.34;98839.23;1748620;81;20154;-41
2021/07/19 06:00:21;;;;;;;22.37;15.38;;;;;;;28.01;59.45;98841.39;1719477;82;21527;-41
2021/07/19 06:02:47;;;;;;;27.22;16.12;;;;;;;28.11;59.55;98842.80;1748697;82;21017;-41
2021/07/19 06:05:15;;;;;;;25.85;16.07;;;;;;;28.22;58.84;98843.55;1748803;82;21131;-41
2021/07/19 06:07:43;;;;;;;23.07;15.98;;;;;;;28.31;58.90;98846.16;1748869;81;21535;-40
2021/07/19 06:10:11;;;;;;;27.55;16.42;;;;;;;28.39;58.29;98845.84;1731978;82;21012;-41
2021/07/19 06:12:40;;;;;;;24.32;16.60;;;;;;;28.48;58.31;98845.67;1719019;83;20906;-41
2021/07/19 06:15:11;;;;;;;20.85;15.32;;;;;;;28.59;57.80;98851.36;1718770;83;21515;-41
2021/07/19 06:17:38;;;;;;;25.72;15.78;;;;;;;28.68;57.75;98855.36;1719040;83;21704;-41
2021/07/19 06:20:15;;;;;;;25.45;15.68;;;;;;;28.78;57.52;98862.95;1718658;83;21004;-41
2021/07/19 06:22:42;;;;;;;23.83;16.12;;;;;;;28.86;56.85;98863.39;1718852;83;21492;-41
2021/07/19 06:25:11;;;;;;;21.93;16.25;;;;;;;28.97;56.89;98864.11;1704081;82;20991;-41
2021/07/19 06:27:38;;;;;;;22.62;15.75;;;;;;;29.05;56.91;98865.17;1703940;84;21064;-41
2021/07/19 06:30:10;;;;;;;24.18;15.65;;;;;;;29.12;56.82;98863.33;1703644;84;21112;-41
2021/07/19 06:32:37;;;;;;;28.27;17.17;;;;;;;29.21;56.65;98860.97;1703779;83;21606;-41
2021/07/19 06:35:06;;;;;;;21.62;15.20;;;;;;;29.30;56.13;98857.37;1703863;84;21017;-41
2021/07/19 06:37:32;;;;;;;22.73;15.60;;;;;;;29.37;55.83;98857.55;1703776;84;21072;-41
2021/07/19 06:39:59;;;;;;;23.98;16.00;;;;;;;29.46;55.82;98854.55;1703888;83;21502;-41
2021/07/19 06:42:26;;;;;;;23.07;15.23;;;;;;;29.56;56.02;98857.27;1703661;84;21070;-41
2021/07/19 06:44:56;;;;;;;20.00;16.02;;;;;;;29.66;55.84;98861.38;1703611;83;20992;-42
2021/07/19 06:47:22;;;;;;;23.25;15.98;;;;;;;29.78;54.98;98860.77;1695900;83;21024;-42
2021/07/19 06:49:50;;;;;;;23.50;15.30;;;;;;;29.88;54.69;98866.27;1691464;84;21510;-42
2021/07/19 06:52:17;;;;;;;19.12;15.53;;;;;;;30.00;54.91;98876.27;1691499;84;21672;-41
2021/07/19 06:54:44;;;;;;;25.82;15.78;;;;;;;30.11;54.61;98883.93;1691554;84;21141;-41
2021/07/19 06:57:10;;;;;;;20.05;14.85;;;;;;;30.20;53.70;98882.30;1691313;84;21000;-42
2021/07/19 06:59:37;;;;;;;21.60;14.95;;;;;;;30.22;53.18;98874.16;1690997;84;21602;-42
2021/07/19 07:02:04;;;;;;;17.35;11.53;;;;;;;30.25;53.47;98879.38;1690864;84;20961;-42
2021/07/19 07:04:31;;;;;;;13.30;10.70;;;;;;;30.23;52.21;98881.28;1690889;84;21060;-42
2021/07/19 07:06:59;;;;;;;17.57;11.10;;;;;;;30.13;51.50;98875.79;1690808;84;20997;-41
2021/07/19 07:09:26;;;;;;;16.48;10.60;;;;;;;29.98;51.51;98873.20;1692109;84;21032;-42
2021/07/19 07:11:53;;;;;;;20.17;10.58;;;;;;;29.80;51.75;98868.80;1696423;84;21088;-42
2021/07/19 07:14:20;;;;;;;17.60;10.43;;;;;;;29.62;52.23;98872.03;1696380;84;21468;-42
2021/07/19 07:16:48;;;;;;;15.13;10.25;;;;;;;29.43;52.41;98870.16;1696464;84;21104;-42
2021/07/19 07:19:15;;;;;;;13.90;10.03;;;;;;;29.28;53.33;98874.48;1696350;84;21570;-42
2021/07/19 07:21:42;;;;;;;17.62;10.75;;;;;;;29.20;53.61;98867.81;1696312;84;21013;-42
2021/07/19 07:24:09;;;;;;;14.47;10.90;;;;;;;29.11;53.69;98861.03;1696510;84;21072;-42
2021/07/19 07:26:36;;;;;;;16.02;10.68;;;;;;;29.07;54.24;98854.91;1696240;84;21020;-41
2021/07/19 07:29:03;;;;;;;15.75;10.65;;;;;;;29.06;54.31;98858.97;1696399;84;21040;-42
2021/07/19 07:31:30;;;;;;;15.83;10.98;;;;;;;29.02;54.00;98862.62;1696164;84;21136;-41
2021/07/19 07:33:58;;;;;;;16.30;10.72;;;;;;;28.99;54.38;98866.41;1696351;84;21041;-42
2021/07/19 07:36:27;;;;;;;16.25;10.78;;;;;;;28.99;54.57;98866.41;1696536;84;21044;-42
2021/07/19 07:38:54;;;;;;;14.80;10.20;;;;;;;28.94;53.07;98869.30;1696247;84;21020;-41
2021/07/19 07:41:21;;;;;;;20.75;10.68;;;;;;;28.83;53.65;98869.97;1696312;84;21530;-41
2021/07/19 07:43:48;;;;;;;20.00;10.32;;;;;;;28.66;54.03;98877.39;1696381;84;22414;-41
2021/07/19 07:46:14;;;;;;;17.70;9.65;;;;;;;28.43;55.06;98886.19;1696375;83;21021;-42
2021/07/19 07:48:41;;;;;;;15.70;10.10;;;;;;;28.15;55.45;98903.89;1698023;84;20983;-41
2021/07/19 07:51:09;;;;;;;16.37;8.75;;;;;;;27.77;56.75;98911.27;1698003;84;21019;-42
2021/07/19 07:53:35;;;;;;;15.25;8.55;;;;;;;27.31;57.03;98906.15;1698107;84;21134;-41
2021/07/19 07:56:03;;;;;;;16.75;9.25;;;;;;;26.84;58.31;98892.63;1698007;84;21565;-41
2021/07/19 07:58:30;;;;;;;13.38;8.55;;;;;;;26.42;59.70;98883.20;1698015;84;21513;-41
2021/07/19 08:00:56;;;;;;;15.03;8.48;;;;;;;26.11;60.83;98875.27;1698082;84;21033;-41
2021/07/19 08:03:23;;;;;;;12.18;7.62;;;;;;;25.87;61.48;98893.98;1698101;84;20981;-41
2021/07/19 08:18:29;;;;;;;14.83;7.83;;;;;;;26.44;60.02;98902.94;1756665;80;22737;-41
2021/07/19 08:20:56;;;;;;;16.65;8.03;;;;;;;26.24;60.61;98907.74;1735581;82;20967;-41
2021/07/19 08:23:23;;;;;;;14.93;7.55;;;;;;;25.87;62.03;98896.14;1735280;82;21488;-41
2021/07/19 08:25:50;;;;;;;17.57;7.47;;;;;;;25.63;62.72;98895.37;1735499;82;20959;-41
2021/07/19 08:28:17;;;;;;;12.80;7.42;;;;;;;25.44;63.26;98892.53;1735445;82;21036;-41
2021/07/19 08:30:44;;;;;;;16.15;7.85;;;;;;;25.26;63.94;98908.67;1746150;80;21044;-41
2021/07/19 08:33:11;;;;;;;12.10;7.47;;;;;;;25.13;64.76;98912.87;1759948;81;21019;-41
2021/07/19 08:35:39;;;;;;;15.15;7.80;;;;;;;25.05;65.45;98918.00;1759995;81;21624;-41
2021/07/19 08:38:06;;;;;;;17.60;8.35;;;;;;;25.00;65.50;98922.17;1759716;81;20897;-41
2021/07/19 08:40:34;;;;;;;14.43;7.78;;;;;;;24.95;65.50;98922.03;1759912;81;20985;-41
2021/07/19 08:43:03;;;;;;;17.17;8.08;;;;;;;24.91;65.91;98910.34;1759860;81;21036;-41
2021/07/19 08:45:30;;;;;;;14.13;7.35;;;;;;;24.86;66.04;98910.94;1759744;81;20972;-41
2021/07/19 08:47:58;;;;;;;15.13;6.85;;;;;;;24.79;66.09;98912.03;1759849;81;21053;-40
2021/07/19 08:50:25;;;;;;;15.25;8.20;;;;;;;24.71;66.23;98925.30;1732485;81;21624;-40
2021/07/19 08:52:54;;;;;;;12.30;7.30;;;;;;;24.61;66.50;98936.41;1759748;81;21001;-40
2021/07/19 08:55:21;;;;;;;11.00;6.80;;;;;;;24.49;66.62;98933.82;1759785;81;21530;-41
2021/07/19 08:57:49;;;;;;;13.65;7.80;;;;;;;24.39;67.25;98927.52;1759900;81;21028;-41
2021/07/19 09:00:18;;;;;;;16.82;7.85;;;;;;;24.27;67.75;98942.29;1759935;81;21502;-41
2021/07/19 09:02:45;;;;;;;13.35;7.85;;;;;;;24.23;68.61;98975.69;1760052;81;21080;-40
2021/07/19 09:05:12;;;;;;;13.75;8.15;;;;;;;24.26;68.81;98993.38;1759818;81;20949;-41
2021/07/19 09:07:39;;;;;;;16.40;8.68;;;;;;;24.31;68.69;98997.53;1759907;81;21542;-41
2021/07/19 09:10:09;;;;;;;13.62;7.40;;;;;;;24.37;69.20;98989.55;1759824;81;21028;-41
2021/07/19 09:12:40;;;;;;;15.78;8.28;;;;;;;24.45;69.34;98978.30;1759961;81;21133;-40
2021/07/19 09:15:12;;;;;;;16.65;8.70;;;;;;;24.53;68.84;98962.91;1759608;81;21031;-40
2021/07/19 09:17:38;;;;;;;17.00;9.20;;;;;;;24.58;68.66;98960.14;1759927;81;21071;-41
2021/07/19 09:20:13;;;;;;;17.82;8.88;;;;;;;24.61;68.33;98947.50;1759198;81;20976;-41
2021/07/19 09:22:40;;;;;;;16.97;8.53;;;;;;;24.61;68.44;98947.50;1759247;81;21596;-41
2021/07/19 09:25:17;;;;;;;13.88;8.40;;;;;;;24.64;68.14;98942.41;1759386;81;21128;-41
2021/07/19 09:28:02;;;;;;;16.97;8.60;;;;;;;24.67;67.76;98946.27;1759365;81;20977;-41
2021/07/19 09:30:29;;;;;;;14.07;7.78;;;;;;;24.66;68.01;98942.72;1759406;81;20941;-41
2021/07/19 09:33:06;;;;;;;19.70;8.43;;;;;;;24.67;68.03;98929.62;1759245;81;22115;-41
2021/07/19 09:35:35;;;;;;;11.08;7.67;;;;;;;24.65;68.19;98924.55;1759334;81;21068;-40
2021/07/19 09:38:07;;;;;;;13.93;8.18;;;;;;;24.67;68.35;98935.95;1759440;81;22147;-41
2021/07/19 09:40:36;;;;;;;14.65;8.35;;;;;;;24.69;68.55;98950.70;1759269;81;21894;-41
2021/07/19 09:43:17;;;;;;;15.30;9.00;;;;;;;24.67;67.87;98978.14;1759355;81;20960;-40
2021/07/19 09:45:45;;;;;;;18.40;8.90;;;;;;;24.57;68.23;99002.33;1759222;81;20989;-40
2021/07/19 09:48:12;;;;;;;13.58;8.68;;;;;;;24.40;69.24;99012.80;1759313;81;21095;-40
2021/07/19 09:50:50;;;;;;;16.52;9.48;;;;;;;24.23;69.95;99013.70;1759336;81;21102;-40
2021/07/19 09:53:38;;;;;;;11.90;8.48;;;;;;;24.07;70.18;99005.02;1759246;81;21080;-40
2021/07/19 09:56:13;;;;;;;14.23;8.78;;;;;;;23.91;70.58;98994.85;1759448;81;21526;-40
2021/07/19 09:58:41;;;;;;;16.87;7.90;;;;;;;23.79;71.08;98997.28;1759197;81;21528;-40
2021/07/19 10:01:09;;;;;;;13.78;8.08;;;;;;;23.75;71.49;99017.42;1759494;81;20945;-40
2021/07/19 10:03:36;;;;;;;18.67;8.43;;;;;;;23.77;71.54;99032.16;1759217;81;21180;-40
2021/07/19 10:06:09;;;;;;;15.20;8.68;;;;;;;23.79;71.24;99044.34;1759143;81;21020;-40
2021/07/19 10:08:37;;;;;;;12.50;7.45;;;;;;;23.84;71.07;99059.58;1759209;81;21016;-40
2021/07/19 10:11:11;;;;;;;17.02;8.00;;;;;;;23.82;70.54;99071.09;1759301;81;20997;-40
2021/07/19 10:13:38;;;;;;;10.93;6.62;;;;;;;23.77;70.37;99081.38;1758740;81;21048;-40
2021/07/19 10:16:05;;;;;;;14.85;7.62;;;;;;;23.66;70.78;99078.28;1759175;81;21553;-40
2021/07/19 10:18:34;;;;;;;11.63;7.50;;;;;;;23.55;70.55;99038.39;1750038;81;21020;-40
2021/07/19 10:21:01;;;;;;;19.62;8.68;;;;;;;23.50;70.76;99019.62;1747168;82;21016;-40
2021/07/19 10:23:27;;;;;;;14.98;8.03;;;;;;;23.53;71.35;98977.22;1747135;82;21041;-41
2021/07/19 10:25:54;;;;;;;20.45;9.13;;;;;;;23.63;71.47;98924.19;1747202;82;20969;-41
2021/07/19 10:28:21;;;;;;;15.55;7.03;;;;;;;23.71;71.00;98904.70;1746988;82;21907;-40
2021/07/19 10:30:48;;;;;;;18.98;8.28;;;;;;;23.77;70.76;98912.52;1746758;82;21024;-41
2021/07/19 10:33:15;;;;;;;15.83;7.80;;;;;;;23.87;70.74;98918.84;1747103;82;20981;-41
2021/07/19 10:35:41;;;;;;;12.68;7.22;;;;;;;23.97;70.50;98930.70;1746911;82;21495;-41
2021/07/19 10:38:17;;;;;;;13.53;7.45;;;;;;;24.05;70.31;98930.57;1746864;82;21017;-41
2021/07/19 10:40:44;;;;;;;13.65;6.92;;;;;;;24.11;70.02;98931.47;1747076;82;21132;-40
2021/07/19 10:43:16;;;;;;;19.00;8.10;;;;;;;24.16;69.90;98937.20;1747150;82;21589;-41
2021/07/19 10:45:51;;;;;;;14.53;7.28;;;;;;;24.20;69.94;98936.45;1746987;81;21040;-41
2021/07/19 10:48:23;;;;;;;12.30;7.45;;;;;;;24.25;69.97;98939.23;1746911;82;21047;-41
2021/07/19 10:50:50;;;;;;;13.25;7.80;;;;;;;24.31;69.91;98940.74;1747126;82;21084;-41
2021/07/19 10:53:19;;;;;;;15.60;8.63;;;;;;;24.36;70.03;98942.28;1747123;82;21073;-41
2021/07/19 10:56:05;;;;;;;14.40;7.80;;;;;;;24.42;70.08;98941.05;1747131;82;20965;-41
2021/07/19 10:58:38;;;;;;;13.58;7.10;;;;;;;24.50;69.97;98930.56;1747090;82;21546;-40
2021/07/19 11:01:05;;;;;;;14.18;8.15;;;;;;;24.61;69.86;98932.25;1744249;82;21041;-41
2021/07/19 11:03:39;;;;;;;15.03;7.90;;;;;;;24.68;69.92;98936.11;1747214;82;21028;-41
2021/07/19 11:06:05;;;;;;;19.52;8.50;;;;;;;24.66;69.73;98931.63;1747116;81;21042;-41
2021/07/19 11:08:32;;;;;;;15.60;8.58;;;;;;;24.66;70.02;98940.56;1747007;82;21789;-41
2021/07/19 11:10:59;;;;;;;12.47;8.45;;;;;;;24.66;70.11;98944.10;1747096;82;20968;-41
2021/07/19 11:13:35;;;;;;;15.40;7.12;;;;;;;24.78;69.85;98955.48;1747070;82;21033;-41
2021/07/19 11:16:14;;;;;;;15.58;8.53;;;;;;;24.93;69.58;98960.57;1723803;82;21487;-41
2021/07/19 11:18:52;;;;;;;13.83;7.67;;;;;;;25.11;69.02;98964.67;1766454;80;21400;-41
2021/07/19 11:21:26;;;;;;;15.05;8.90;;;;;;;25.31;69.01;98964.14;1760448;81;21010;-41
2021/07/19 11:23:53;;;;;;;16.50;8.60;;;;;;;25.49;68.71;98960.66;1760693;81;21021;-41
2021/07/19 11:26:24;;;;;;;17.12;9.05;;;;;;;25.64;68.27;98954.45;1760513;81;20934;-41
2021/07/19 11:28:55;;;;;;;14.87;8.70;;;;;;;25.75;67.87;98961.03;1760766;81;21523;-41
2021/07/19 11:31:27;;;;;;;16.67;8.75;;;;;;;25.86;67.42;98947.98;1748307;81;21807;-41
2021/07/19 11:34:00;;;;;;;12.05;8.58;;;;;;;25.93;66.92;98953.20;1727035;83;21005;-41
2021/07/19 11:36:46;;;;;;;14.35;8.13;;;;;;;25.96;66.87;98964.13;1727131;83;20987;-41
2021/07/19 11:39:20;;;;;;;11.75;8.13;;;;;;;26.06;65.71;98976.55;1727244;83;21035;-41
2021/07/19 11:42:02;;;;;;;13.93;8.65;;;;;;;26.08;65.23;98978.25;1727217;83;21032;-41
2021/07/19 11:44:32;;;;;;;15.23;9.05;;;;;;;26.15;65.61;98971.70;1727098;83;21505;-41